sensor_id;sensor_type;location;lat;lon;timestamp;P1;durP1;ratioP1;P2;durP2;ratioP2
2187;SDS011;1100;52.014;8.540;2023-06-04T00:00:58;2.08;;;0.50;;
2187;SDS011;1100;52.014;8.540;2023-06-04T00:03:23;3.23;;;1.37;;
2187;SDS011;1100;52.014;8.540;2023-06-04T00:05:49;2.97;;;0.70;;
2187;SDS011;1100;52.014;8.540;2023-06-04T00:08:14;3.47;;;0.80;;
2187;SDS011;1100;52.014;8.540;2023-06-04T00:10:40;3.10;;;0.80;;
2187;SDS011;1100;52.014;8.540;2023-06-04T00:13:05;2.57;;;0.80;;
2187;SDS011;1100;52.014;8.540;2023-06-04T00:15:31;3.25;;;1.05;;
2187;SDS011;1100;52.014;8.540;2023-06-04T00:17:56;4.47;;;0.87;;
2187;SDS011;1100;52.014;8.540;2023-06-04T00:20:21;4.60;;;0.73;;
2187;SDS011;1100;52.014;8.540;2023-06-04T00:22:47;1.73;;;0.60;;
2187;SDS011;1100;52.014;8.540;2023-06-04T00:25:12;2.83;;;1.07;;
2187;SDS011;1100;52.014;8.540;2023-06-04T00:27:38;1.70;;;0.50;;
2187;SDS011;1100;52.014;8.540;2023-06-04T00:30:03;2.93;;;0.83;;
2187;SDS011;1100;52.014;8.540;2023-06-04T00:32:29;2.07;;;0.50;;
2187;SDS011;1100;52.014;8.540;2023-06-04T00:34:55;1.80;;;0.50;;
2187;SDS011;1100;52.014;8.540;2023-06-04T00:37:22;1.83;;;0.50;;
2187;SDS011;1100;52.014;8.540;2023-06-04T00:39:48;1.50;;;0.50;;
2187;SDS011;1100;52.014;8.540;2023-06-04T00:42:14;1.43;;;0.40;;
2187;SDS011;1100;52.014;8.540;2023-06-04T00:44:39;2.83;;;0.50;;
2187;SDS011;1100;52.014;8.540;2023-06-04T00:47:09;2.50;;;0.60;;
2187;SDS011;1100;52.014;8.540;2023-06-04T00:49:36;1.73;;;0.57;;
2187;SDS011;1100;52.014;8.540;2023-06-04T00:52:02;1.98;;;0.50;;
2187;SDS011;1100;52.014;8.540;2023-06-04T00:54:27;4.13;;;1.10;;
2187;SDS011;1100;52.014;8.540;2023-06-04T00:56:53;1.80;;;0.50;;
2187;SDS011;1100;52.014;8.540;2023-06-04T00:59:19;1.20;;;0.33;;
2187;SDS011;1100;52.014;8.540;2023-06-04T01:01:47;1.63;;;0.53;;
2187;SDS011;1100;52.014;8.540;2023-06-04T01:04:25;2.50;;;0.45;;
2187;SDS011;1100;52.014;8.540;2023-06-04T01:06:57;1.77;;;0.47;;
2187;SDS011;1100;52.014;8.540;2023-06-04T01:09:28;1.63;;;0.47;;
2187;SDS011;1100;52.014;8.540;2023-06-04T01:11:54;1.20;;;0.30;;
2187;SDS011;1100;52.014;8.540;2023-06-04T01:14:23;1.48;;;0.45;;
2187;SDS011;1100;52.014;8.540;2023-06-04T01:22:33;1.85;;;0.40;;
2187;SDS011;1100;52.014;8.540;2023-06-04T01:25:03;1.50;;;0.50;;
2187;SDS011;1100;52.014;8.540;2023-06-04T01:27:31;1.25;;;0.40;;
2187;SDS011;1100;52.014;8.540;2023-06-04T01:29:58;2.65;;;0.45;;
2187;SDS011;1100;52.014;8.540;2023-06-04T01:32:25;2.83;;;0.30;;
2187;SDS011;1100;52.014;8.540;2023-06-04T01:34:51;1.53;;;0.40;;
2187;SDS011;1100;52.014;8.540;2023-06-04T01:37:16;1.48;;;0.40;;
2187;SDS011;1100;52.014;8.540;2023-06-04T01:39:43;1.10;;;0.40;;
2187;SDS011;1100;52.014;8.540;2023-06-04T01:42:08;2.20;;;0.47;;
2187;SDS011;1100;52.014;8.540;2023-06-04T01:44:34;2.37;;;0.40;;
2187;SDS011;1100;52.014;8.540;2023-06-04T01:46:59;2.47;;;0.50;;
2187;SDS011;1100;52.014;8.540;2023-06-04T01:49:25;2.00;;;0.60;;
2187;SDS011;1100;52.014;8.540;2023-06-04T01:51:50;1.80;;;0.40;;
2187;SDS011;1100;52.014;8.540;2023-06-04T01:54:16;0.87;;;0.20;;
2187;SDS011;1100;52.014;8.540;2023-06-04T01:56:41;1.50;;;0.33;;
2187;SDS011;1100;52.014;8.540;2023-06-04T01:59:07;1.38;;;0.40;;
2187;SDS011;1100;52.014;8.540;2023-06-04T02:01:32;1.00;;;0.30;;
2187;SDS011;1100;52.014;8.540;2023-06-04T02:03:58;1.17;;;0.20;;
2187;SDS011;1100;52.014;8.540;2023-06-04T02:06:23;1.60;;;0.40;;
2187;SDS011;1100;52.014;8.540;2023-06-04T02:08:49;2.67;;;0.30;;
2187;SDS011;1100;52.014;8.540;2023-06-04T02:11:15;1.52;;;0.30;;
2187;SDS011;1100;52.014;8.540;2023-06-04T02:13:40;0.90;;;0.20;;
2187;SDS011;1100;52.014;8.540;2023-06-04T02:16:06;1.00;;;0.30;;
2187;SDS011;1100;52.014;8.540;2023-06-04T02:18:31;2.40;;;0.40;;
2187;SDS011;1100;52.014;8.540;2023-06-04T02:20:56;1.20;;;0.30;;
2187;SDS011;1100;52.014;8.540;2023-06-04T02:23:22;1.35;;;0.43;;
2187;SDS011;1100;52.014;8.540;2023-06-04T02:25:48;1.37;;;0.50;;
2187;SDS011;1100;52.014;8.540;2023-06-04T02:28:14;1.38;;;0.30;;
2187;SDS011;1100;52.014;8.540;2023-06-04T02:30:40;1.20;;;0.32;;
2187;SDS011;1100;52.014;8.540;2023-06-04T02:33:05;1.00;;;0.30;;
2187;SDS011;1100;52.014;8.540;2023-06-04T02:35:31;0.90;;;0.23;;
2187;SDS011;1100;52.014;8.540;2023-06-04T02:37:57;1.00;;;0.20;;
2187;SDS011;1100;52.014;8.540;2023-06-04T02:40:23;0.83;;;0.20;;
2187;SDS011;1100;52.014;8.540;2023-06-04T02:42:54;1.60;;;0.30;;
2187;SDS011;1100;52.014;8.540;2023-06-04T02:45:20;1.30;;;0.40;;
2187;SDS011;1100;52.014;8.540;2023-06-04T02:47:46;1.02;;;0.30;;
2187;SDS011;1100;52.014;8.540;2023-06-04T02:50:12;1.37;;;0.40;;
2187;SDS011;1100;52.014;8.540;2023-06-04T02:52:38;1.00;;;0.30;;
2187;SDS011;1100;52.014;8.540;2023-06-04T02:55:05;1.48;;;0.38;;
2187;SDS011;1100;52.014;8.540;2023-06-04T02:57:34;1.20;;;0.47;;
2187;SDS011;1100;52.014;8.540;2023-06-04T02:59:59;0.93;;;0.27;;
2187;SDS011;1100;52.014;8.540;2023-06-04T03:02:26;1.50;;;0.50;;
2187;SDS011;1100;52.014;8.540;2023-06-04T03:04:52;1.30;;;0.30;;
2187;SDS011;1100;52.014;8.540;2023-06-04T03:07:20;0.93;;;0.20;;
2187;SDS011;1100;52.014;8.540;2023-06-04T03:09:48;2.25;;;0.45;;
2187;SDS011;1100;52.014;8.540;2023-06-04T03:12:13;1.48;;;0.40;;
2187;SDS011;1100;52.014;8.540;2023-06-04T03:14:39;1.80;;;0.77;;
2187;SDS011;1100;52.014;8.540;2023-06-04T03:17:05;1.33;;;0.38;;
2187;SDS011;1100;52.014;8.540;2023-06-04T03:19:38;1.10;;;0.40;;
2187;SDS011;1100;52.014;8.540;2023-06-04T03:22:06;1.08;;;0.20;;
2187;SDS011;1100;52.014;8.540;2023-06-04T03:24:34;2.47;;;0.85;;
2187;SDS011;1100;52.014;8.540;2023-06-04T03:27:01;1.40;;;0.30;;
2187;SDS011;1100;52.014;8.540;2023-06-04T03:29:27;2.55;;;0.40;;
2187;SDS011;1100;52.014;8.540;2023-06-04T03:31:52;3.27;;;0.40;;
2187;SDS011;1100;52.014;8.540;2023-06-04T03:34:17;1.10;;;0.30;;
2187;SDS011;1100;52.014;8.540;2023-06-04T03:36:43;1.10;;;0.40;;
2187;SDS011;1100;52.014;8.540;2023-06-04T03:39:08;2.10;;;0.77;;
2187;SDS011;1100;52.014;8.540;2023-06-04T03:41:34;1.83;;;0.60;;
2187;SDS011;1100;52.014;8.540;2023-06-04T03:43:59;1.92;;;0.35;;
2187;SDS011;1100;52.014;8.540;2023-06-04T03:46:24;1.43;;;0.53;;
2187;SDS011;1100;52.014;8.540;2023-06-04T03:48:56;1.38;;;0.40;;
2187;SDS011;1100;52.014;8.540;2023-06-04T03:51:22;1.63;;;0.53;;
2187;SDS011;1100;52.014;8.540;2023-06-04T03:53:47;2.33;;;0.60;;
2187;SDS011;1100;52.014;8.540;2023-06-04T03:56:12;1.27;;;0.30;;
2187;SDS011;1100;52.014;8.540;2023-06-04T03:58:42;1.58;;;0.50;;
2187;SDS011;1100;52.014;8.540;2023-06-04T04:01:07;1.20;;;0.30;;
2187;SDS011;1100;52.014;8.540;2023-06-04T04:03:35;1.67;;;0.35;;
2187;SDS011;1100;52.014;8.540;2023-06-04T04:06:01;1.47;;;0.53;;
2187;SDS011;1100;52.014;8.540;2023-06-04T04:08:26;1.07;;;0.30;;
2187;SDS011;1100;52.014;8.540;2023-06-04T04:10:56;0.90;;;0.20;;
2187;SDS011;1100;52.014;8.540;2023-06-04T04:13:22;1.20;;;0.40;;
2187;SDS011;1100;52.014;8.540;2023-06-04T04:15:47;1.17;;;0.40;;
2187;SDS011;1100;52.014;8.540;2023-06-04T04:18:17;1.20;;;0.55;;
2187;SDS011;1100;52.014;8.540;2023-06-04T04:20:44;1.20;;;0.30;;
2187;SDS011;1100;52.014;8.540;2023-06-04T04:23:11;1.95;;;0.55;;
2187;SDS011;1100;52.014;8.540;2023-06-04T04:25:36;1.30;;;0.40;;
2187;SDS011;1100;52.014;8.540;2023-06-04T04:28:02;1.05;;;0.40;;
2187;SDS011;1100;52.014;8.540;2023-06-04T04:30:31;1.13;;;0.32;;
2187;SDS011;1100;52.014;8.540;2023-06-04T04:32:59;1.05;;;0.30;;
2187;SDS011;1100;52.014;8.540;2023-06-04T04:35:25;1.30;;;0.43;;
2187;SDS011;1100;52.014;8.540;2023-06-04T04:37:50;2.15;;;0.40;;
2187;SDS011;1100;52.014;8.540;2023-06-04T04:40:16;1.33;;;0.37;;
2187;SDS011;1100;52.014;8.540;2023-06-04T04:42:41;1.60;;;0.50;;
2187;SDS011;1100;52.014;8.540;2023-06-04T04:45:07;1.30;;;0.43;;
2187;SDS011;1100;52.014;8.540;2023-06-04T04:47:33;1.40;;;0.30;;
2187;SDS011;1100;52.014;8.540;2023-06-04T04:49:58;3.03;;;0.50;;
2187;SDS011;1100;52.014;8.540;2023-06-04T04:52:23;1.03;;;0.30;;
2187;SDS011;1100;52.014;8.540;2023-06-04T04:54:49;1.37;;;0.50;;
2187;SDS011;1100;52.014;8.540;2023-06-04T04:57:14;2.67;;;0.40;;
2187;SDS011;1100;52.014;8.540;2023-06-04T04:59:40;1.30;;;0.30;;
2187;SDS011;1100;52.014;8.540;2023-06-04T05:02:05;1.33;;;0.40;;
2187;SDS011;1100;52.014;8.540;2023-06-04T05:04:31;1.30;;;0.32;;
2187;SDS011;1100;52.014;8.540;2023-06-04T05:06:56;2.23;;;0.40;;
2187;SDS011;1100;52.014;8.540;2023-06-04T05:09:21;1.50;;;0.50;;
2187;SDS011;1100;52.014;8.540;2023-06-04T05:11:47;1.27;;;0.40;;
2187;SDS011;1100;52.014;8.540;2023-06-04T05:14:12;1.83;;;0.40;;
2187;SDS011;1100;52.014;8.540;2023-06-04T05:16:37;1.40;;;0.47;;
2187;SDS011;1100;52.014;8.540;2023-06-04T05:19:03;1.00;;;0.20;;
2187;SDS011;1100;52.014;8.540;2023-06-04T05:21:29;1.10;;;0.30;;
2187;SDS011;1100;52.014;8.540;2023-06-04T05:23:54;1.60;;;0.40;;
2187;SDS011;1100;52.014;8.540;2023-06-04T05:26:21;1.85;;;0.55;;
2187;SDS011;1100;52.014;8.540;2023-06-04T05:28:48;1.75;;;0.52;;
2187;SDS011;1100;52.014;8.540;2023-06-04T05:31:14;1.27;;;0.35;;
2187;SDS011;1100;52.014;8.540;2023-06-04T05:33:40;1.25;;;0.30;;
2187;SDS011;1100;52.014;8.540;2023-06-04T05:36:06;1.80;;;0.47;;
2187;SDS011;1100;52.014;8.540;2023-06-04T05:38:32;1.33;;;0.40;;
2187;SDS011;1100;52.014;8.540;2023-06-04T05:40:57;1.90;;;0.50;;
2187;SDS011;1100;52.014;8.540;2023-06-04T05:43:23;1.10;;;0.30;;
2187;SDS011;1100;52.014;8.540;2023-06-04T05:45:48;3.28;;;0.60;;
2187;SDS011;1100;52.014;8.540;2023-06-04T05:48:14;1.63;;;0.60;;
2187;SDS011;1100;52.014;8.540;2023-06-04T05:50:40;2.70;;;0.50;;
2187;SDS011;1100;52.014;8.540;2023-06-04T05:53:05;1.73;;;0.60;;
2187;SDS011;1100;52.014;8.540;2023-06-04T05:55:31;2.00;;;0.60;;
2187;SDS011;1100;52.014;8.540;2023-06-04T05:57:56;1.60;;;0.60;;
2187;SDS011;1100;52.014;8.540;2023-06-04T06:00:22;2.92;;;0.65;;
2187;SDS011;1100;52.014;8.540;2023-06-04T06:02:49;1.10;;;0.40;;
2187;SDS011;1100;52.014;8.540;2023-06-04T06:05:15;1.67;;;0.43;;
2187;SDS011;1100;52.014;8.540;2023-06-04T06:07:40;1.42;;;0.38;;
2187;SDS011;1100;52.014;8.540;2023-06-04T06:10:06;1.23;;;0.33;;
2187;SDS011;1100;52.014;8.540;2023-06-04T06:12:32;1.98;;;0.55;;
2187;SDS011;1100;52.014;8.540;2023-06-04T06:14:57;1.73;;;0.40;;
2187;SDS011;1100;52.014;8.540;2023-06-04T06:17:23;1.83;;;0.60;;
2187;SDS011;1100;52.014;8.540;2023-06-04T06:19:49;2.30;;;0.60;;
2187;SDS011;1100;52.014;8.540;2023-06-04T06:22:14;2.70;;;0.73;;
2187;SDS011;1100;52.014;8.540;2023-06-04T06:24:40;1.50;;;0.45;;
2187;SDS011;1100;52.014;8.540;2023-06-04T06:27:05;2.67;;;0.57;;
2187;SDS011;1100;52.014;8.540;2023-06-04T06:29:31;5.03;;;0.47;;
2187;SDS011;1100;52.014;8.540;2023-06-04T06:31:57;1.43;;;0.40;;
2187;SDS011;1100;52.014;8.540;2023-06-04T06:34:22;1.97;;;0.50;;
2187;SDS011;1100;52.014;8.540;2023-06-04T06:36:48;1.58;;;0.50;;
2187;SDS011;1100;52.014;8.540;2023-06-04T06:39:14;1.38;;;0.32;;
2187;SDS011;1100;52.014;8.540;2023-06-04T06:41:41;1.88;;;0.70;;
2187;SDS011;1100;52.014;8.540;2023-06-04T06:44:06;1.20;;;0.30;;
2187;SDS011;1100;52.014;8.540;2023-06-04T06:46:32;1.53;;;0.43;;
2187;SDS011;1100;52.014;8.540;2023-06-04T06:48:57;3.73;;;0.73;;
2187;SDS011;1100;52.014;8.540;2023-06-04T06:51:22;2.83;;;0.80;;
2187;SDS011;1100;52.014;8.540;2023-06-04T06:53:51;2.00;;;0.50;;
2187;SDS011;1100;52.014;8.540;2023-06-04T06:56:16;2.40;;;0.82;;
2187;SDS011;1100;52.014;8.540;2023-06-04T06:58:43;1.30;;;0.40;;
2187;SDS011;1100;52.014;8.540;2023-06-04T07:01:08;2.37;;;0.60;;
2187;SDS011;1100;52.014;8.540;2023-06-04T07:03:34;2.00;;;0.50;;
2187;SDS011;1100;52.014;8.540;2023-06-04T07:06:00;2.17;;;0.60;;
2187;SDS011;1100;52.014;8.540;2023-06-04T07:08:25;1.80;;;0.50;;
2187;SDS011;1100;52.014;8.540;2023-06-04T07:10:50;2.13;;;0.68;;
2187;SDS011;1100;52.014;8.540;2023-06-04T07:13:16;1.60;;;0.43;;
2187;SDS011;1100;52.014;8.540;2023-06-04T07:15:41;2.37;;;0.70;;
2187;SDS011;1100;52.014;8.540;2023-06-04T07:18:07;2.73;;;0.60;;
2187;SDS011;1100;52.014;8.540;2023-06-04T07:20:32;2.20;;;0.70;;
2187;SDS011;1100;52.014;8.540;2023-06-04T07:22:57;1.47;;;0.40;;
2187;SDS011;1100;52.014;8.540;2023-06-04T07:25:23;1.97;;;0.60;;
2187;SDS011;1100;52.014;8.540;2023-06-04T07:27:48;2.07;;;0.60;;
2187;SDS011;1100;52.014;8.540;2023-06-04T07:30:17;3.22;;;0.65;;
2187;SDS011;1100;52.014;8.540;2023-06-04T07:32:49;2.47;;;0.60;;
2187;SDS011;1100;52.014;8.540;2023-06-04T07:35:15;2.17;;;0.73;;
2187;SDS011;1100;52.014;8.540;2023-06-04T07:37:41;1.97;;;0.40;;
2187;SDS011;1100;52.014;8.540;2023-06-04T07:40:09;1.65;;;0.52;;
2187;SDS011;1100;52.014;8.540;2023-06-04T07:42:35;2.42;;;0.70;;
2187;SDS011;1100;52.014;8.540;2023-06-04T07:45:01;2.43;;;0.60;;
2187;SDS011;1100;52.014;8.540;2023-06-04T07:47:26;2.13;;;0.77;;
2187;SDS011;1100;52.014;8.540;2023-06-04T07:49:52;2.92;;;0.90;;
2187;SDS011;1100;52.014;8.540;2023-06-04T07:52:18;4.27;;;0.60;;
2187;SDS011;1100;52.014;8.540;2023-06-04T07:54:46;1.70;;;0.60;;
2187;SDS011;1100;52.014;8.540;2023-06-04T07:57:11;2.65;;;0.68;;
2187;SDS011;1100;52.014;8.540;2023-06-04T07:59:37;2.17;;;0.50;;
2187;SDS011;1100;52.014;8.540;2023-06-04T08:02:03;2.10;;;0.70;;
2187;SDS011;1100;52.014;8.540;2023-06-04T08:04:28;7.83;;;0.90;;
2187;SDS011;1100;52.014;8.540;2023-06-04T08:06:54;1.95;;;0.68;;
2187;SDS011;1100;52.014;8.540;2023-06-04T08:09:20;2.15;;;0.73;;
2187;SDS011;1100;52.014;8.540;2023-06-04T08:11:45;4.03;;;0.70;;
2187;SDS011;1100;52.014;8.540;2023-06-04T08:14:11;2.10;;;0.60;;
2187;SDS011;1100;52.014;8.540;2023-06-04T08:16:37;3.70;;;1.02;;
2187;SDS011;1100;52.014;8.540;2023-06-04T08:19:03;2.57;;;0.70;;
2187;SDS011;1100;52.014;8.540;2023-06-04T08:21:28;2.10;;;0.70;;
2187;SDS011;1100;52.014;8.540;2023-06-04T08:23:54;4.60;;;1.03;;
2187;SDS011;1100;52.014;8.540;2023-06-04T08:26:20;3.30;;;0.95;;
2187;SDS011;1100;52.014;8.540;2023-06-04T08:28:49;2.83;;;0.87;;
2187;SDS011;1100;52.014;8.540;2023-06-04T08:31:14;2.75;;;1.00;;
2187;SDS011;1100;52.014;8.540;2023-06-04T08:33:40;2.90;;;0.93;;
2187;SDS011;1100;52.014;8.540;2023-06-04T08:36:06;2.80;;;0.90;;
2187;SDS011;1100;52.014;8.540;2023-06-04T08:38:31;3.40;;;0.93;;
2187;SDS011;1100;52.014;8.540;2023-06-04T08:40:58;3.20;;;1.10;;
2187;SDS011;1100;52.014;8.540;2023-06-04T08:43:29;3.70;;;1.30;;
2187;SDS011;1100;52.014;8.540;2023-06-04T08:45:58;3.28;;;1.17;;
2187;SDS011;1100;52.014;8.540;2023-06-04T08:48:26;2.80;;;1.10;;
2187;SDS011;1100;52.014;8.540;2023-06-04T08:50:53;3.08;;;1.20;;
2187;SDS011;1100;52.014;8.540;2023-06-04T08:53:20;3.00;;;0.90;;
2187;SDS011;1100;52.014;8.540;2023-06-04T08:55:45;2.87;;;1.07;;
2187;SDS011;1100;52.014;8.540;2023-06-04T08:58:15;3.17;;;1.20;;
2187;SDS011;1100;52.014;8.540;2023-06-04T09:00:41;3.73;;;1.40;;
2187;SDS011;1100;52.014;8.540;2023-06-04T09:03:06;3.83;;;1.20;;
2187;SDS011;1100;52.014;8.540;2023-06-04T09:05:32;3.20;;;1.17;;
2187;SDS011;1100;52.014;8.540;2023-06-04T09:08:00;3.63;;;1.00;;
2187;SDS011;1100;52.014;8.540;2023-06-04T09:10:26;3.08;;;1.02;;
2187;SDS011;1100;52.014;8.540;2023-06-04T09:12:54;3.95;;;1.13;;
2187;SDS011;1100;52.014;8.540;2023-06-04T09:15:22;3.50;;;0.93;;
2187;SDS011;1100;52.014;8.540;2023-06-04T09:17:48;3.57;;;0.77;;
2187;SDS011;1100;52.014;8.540;2023-06-04T09:20:20;2.53;;;0.80;;
2187;SDS011;1100;52.014;8.540;2023-06-04T09:22:49;2.80;;;1.03;;
2187;SDS011;1100;52.014;8.540;2023-06-04T09:25:24;2.75;;;0.88;;
2187;SDS011;1100;52.014;8.540;2023-06-04T09:27:50;2.90;;;1.00;;
2187;SDS011;1100;52.014;8.540;2023-06-04T09:30:16;2.42;;;0.85;;
2187;SDS011;1100;52.014;8.540;2023-06-04T09:32:42;4.00;;;1.20;;
2187;SDS011;1100;52.014;8.540;2023-06-04T09:35:11;2.87;;;1.00;;
2187;SDS011;1100;52.014;8.540;2023-06-04T09:37:39;2.30;;;0.80;;
2187;SDS011;1100;52.014;8.540;2023-06-04T09:40:05;2.50;;;0.82;;
2187;SDS011;1100;52.014;8.540;2023-06-04T09:42:46;3.20;;;1.00;;
2187;SDS011;1100;52.014;8.540;2023-06-04T09:45:31;2.20;;;0.80;;
2187;SDS011;1100;52.014;8.540;2023-06-04T09:47:58;2.70;;;0.93;;
2187;SDS011;1100;52.014;8.540;2023-06-04T09:50:25;4.63;;;1.00;;
2187;SDS011;1100;52.014;8.540;2023-06-04T09:52:52;3.13;;;1.10;;
2187;SDS011;1100;52.014;8.540;2023-06-04T09:55:18;5.83;;;1.03;;
2187;SDS011;1100;52.014;8.540;2023-06-04T09:57:48;2.55;;;0.98;;
2187;SDS011;1100;52.014;8.540;2023-06-04T10:00:16;3.28;;;0.90;;
2187;SDS011;1100;52.014;8.540;2023-06-04T10:02:43;2.83;;;1.00;;
2187;SDS011;1100;52.014;8.540;2023-06-04T10:05:09;3.13;;;0.90;;
2187;SDS011;1100;52.014;8.540;2023-06-04T10:07:38;2.85;;;1.08;;
2187;SDS011;1100;52.014;8.540;2023-06-04T10:10:04;2.83;;;0.88;;
2187;SDS011;1100;52.014;8.540;2023-06-04T10:12:31;2.60;;;0.80;;
2187;SDS011;1100;52.014;8.540;2023-06-04T10:15:02;2.65;;;0.90;;
2187;SDS011;1100;52.014;8.540;2023-06-04T10:17:32;3.27;;;1.10;;
2187;SDS011;1100;52.014;8.540;2023-06-04T10:19:59;2.70;;;0.95;;
2187;SDS011;1100;52.014;8.540;2023-06-04T10:22:26;3.47;;;0.88;;
2187;SDS011;1100;52.014;8.540;2023-06-04T10:24:54;2.53;;;0.90;;
2187;SDS011;1100;52.014;8.540;2023-06-04T10:27:19;2.60;;;1.00;;
2187;SDS011;1100;52.014;8.540;2023-06-04T10:29:47;2.70;;;1.10;;
2187;SDS011;1100;52.014;8.540;2023-06-04T10:32:12;4.43;;;1.20;;
2187;SDS011;1100;52.014;8.540;2023-06-04T10:34:38;2.77;;;1.00;;
2187;SDS011;1100;52.014;8.540;2023-06-04T10:37:03;3.03;;;1.20;;
2187;SDS011;1100;52.014;8.540;2023-06-04T10:39:30;2.00;;;0.73;;
2187;SDS011;1100;52.014;8.540;2023-06-04T10:42:03;2.97;;;0.93;;
2187;SDS011;1100;52.014;8.540;2023-06-04T10:44:45;5.65;;;1.10;;
2187;SDS011;1100;52.014;8.540;2023-06-04T10:47:22;2.83;;;1.10;;
2187;SDS011;1100;52.014;8.540;2023-06-04T10:49:51;3.60;;;1.13;;
2187;SDS011;1100;52.014;8.540;2023-06-04T10:52:18;2.80;;;1.00;;
2187;SDS011;1100;52.014;8.540;2023-06-04T10:54:44;3.00;;;0.90;;
2187;SDS011;1100;52.014;8.540;2023-06-04T10:59:40;2.92;;;0.82;;
2187;SDS011;1100;52.014;8.540;2023-06-04T11:02:06;2.87;;;1.07;;
2187;SDS011;1100;52.014;8.540;2023-06-04T11:04:32;2.78;;;1.02;;
2187;SDS011;1100;52.014;8.540;2023-06-04T11:07:01;2.30;;;0.83;;
2187;SDS011;1100;52.014;8.540;2023-06-04T11:09:49;2.60;;;0.85;;
2187;SDS011;1100;52.014;8.540;2023-06-04T11:12:15;2.38;;;0.73;;
2187;SDS011;1100;52.014;8.540;2023-06-04T11:14:41;2.30;;;0.90;;
2187;SDS011;1100;52.014;8.540;2023-06-04T11:17:09;2.63;;;1.00;;
2187;SDS011;1100;52.014;8.540;2023-06-04T11:19:36;4.38;;;1.20;;
2187;SDS011;1100;52.014;8.540;2023-06-04T11:22:02;2.42;;;0.80;;
2187;SDS011;1100;52.014;8.540;2023-06-04T11:24:27;2.70;;;1.10;;
2187;SDS011;1100;52.014;8.540;2023-06-04T11:26:54;2.25;;;0.90;;
2187;SDS011;1100;52.014;8.540;2023-06-04T11:29:24;3.17;;;1.10;;
2187;SDS011;1100;52.014;8.540;2023-06-04T11:31:50;2.37;;;0.87;;
2187;SDS011;1100;52.014;8.540;2023-06-04T11:34:24;3.50;;;0.67;;
2187;SDS011;1100;52.014;8.540;2023-06-04T11:36:53;2.10;;;0.75;;
2187;SDS011;1100;52.014;8.540;2023-06-04T11:39:19;2.37;;;0.80;;
2187;SDS011;1100;52.014;8.540;2023-06-04T11:41:46;2.22;;;0.80;;
2187;SDS011;1100;52.014;8.540;2023-06-04T11:44:12;2.38;;;0.90;;
2187;SDS011;1100;52.014;8.540;2023-06-04T11:46:41;3.63;;;0.80;;
2187;SDS011;1100;52.014;8.540;2023-06-04T11:49:11;3.20;;;0.93;;
2187;SDS011;1100;52.014;8.540;2023-06-04T11:51:44;2.05;;;0.73;;
2187;SDS011;1100;52.014;8.540;2023-06-04T11:54:18;2.38;;;0.70;;
2187;SDS011;1100;52.014;8.540;2023-06-04T11:56:44;3.17;;;0.80;;
2187;SDS011;1100;52.014;8.540;2023-06-04T11:59:15;2.40;;;0.90;;
2187;SDS011;1100;52.014;8.540;2023-06-04T12:01:42;2.55;;;0.85;;
2187;SDS011;1100;52.014;8.540;2023-06-04T12:04:12;2.35;;;0.80;;
2187;SDS011;1100;52.014;8.540;2023-06-04T12:06:38;2.58;;;0.82;;
2187;SDS011;1100;52.014;8.540;2023-06-04T12:09:04;2.20;;;0.80;;
2187;SDS011;1100;52.014;8.540;2023-06-04T12:14:05;3.15;;;1.10;;
2187;SDS011;1100;52.014;8.540;2023-06-04T12:16:31;2.45;;;0.88;;
2187;SDS011;1100;52.014;8.540;2023-06-04T12:19:05;2.30;;;0.83;;
2187;SDS011;1100;52.014;8.540;2023-06-04T12:21:33;2.30;;;0.90;;
2187;SDS011;1100;52.014;8.540;2023-06-04T12:24:05;2.20;;;0.80;;
2187;SDS011;1100;52.014;8.540;2023-06-04T12:26:35;2.50;;;0.88;;
2187;SDS011;1100;52.014;8.540;2023-06-04T12:31:35;2.35;;;0.63;;
2187;SDS011;1100;52.014;8.540;2023-06-04T12:34:01;2.67;;;0.77;;
2187;SDS011;1100;52.014;8.540;2023-06-04T12:36:27;2.50;;;0.70;;
2187;SDS011;1100;52.014;8.540;2023-06-04T12:38:53;2.85;;;0.80;;
2187;SDS011;1100;52.014;8.540;2023-06-04T12:41:22;1.70;;;0.60;;
2187;SDS011;1100;52.014;8.540;2023-06-04T12:43:48;2.08;;;0.73;;
2187;SDS011;1100;52.014;8.540;2023-06-04T12:46:13;2.70;;;0.63;;
2187;SDS011;1100;52.014;8.540;2023-06-04T12:48:38;2.07;;;0.70;;
2187;SDS011;1100;52.014;8.540;2023-06-04T12:51:04;2.20;;;0.70;;
2187;SDS011;1100;52.014;8.540;2023-06-04T12:53:29;1.92;;;0.55;;
2187;SDS011;1100;52.014;8.540;2023-06-04T12:55:55;2.07;;;0.60;;
2187;SDS011;1100;52.014;8.540;2023-06-04T12:58:20;2.40;;;0.80;;
2187;SDS011;1100;52.014;8.540;2023-06-04T13:00:45;3.93;;;1.00;;
2187;SDS011;1100;52.014;8.540;2023-06-04T13:03:11;2.30;;;0.77;;
2187;SDS011;1100;52.014;8.540;2023-06-04T13:05:36;1.70;;;0.50;;
2187;SDS011;1100;52.014;8.540;2023-06-04T13:08:01;1.90;;;0.60;;
2187;SDS011;1100;52.014;8.540;2023-06-04T13:10:27;1.70;;;0.60;;
2187;SDS011;1100;52.014;8.540;2023-06-04T13:12:52;2.77;;;0.80;;
2187;SDS011;1100;52.014;8.540;2023-06-04T13:15:18;2.03;;;0.60;;
2187;SDS011;1100;52.014;8.540;2023-06-04T13:17:43;2.10;;;0.63;;
2187;SDS011;1100;52.014;8.540;2023-06-04T13:20:08;2.17;;;0.70;;
2187;SDS011;1100;52.014;8.540;2023-06-04T13:22:34;2.60;;;0.70;;
2187;SDS011;1100;52.014;8.540;2023-06-04T13:25:00;2.20;;;0.77;;
2187;SDS011;1100;52.014;8.540;2023-06-04T13:27:26;3.17;;;0.68;;
2187;SDS011;1100;52.014;8.540;2023-06-04T13:29:51;2.30;;;0.60;;
2187;SDS011;1100;52.014;8.540;2023-06-04T13:32:16;2.03;;;0.63;;
2187;SDS011;1100;52.014;8.540;2023-06-04T13:34:42;2.17;;;0.60;;
2187;SDS011;1100;52.014;8.540;2023-06-04T13:37:07;2.35;;;0.70;;
2187;SDS011;1100;52.014;8.540;2023-06-04T13:39:35;2.07;;;0.60;;
2187;SDS011;1100;52.014;8.540;2023-06-04T13:42:01;2.20;;;0.60;;
2187;SDS011;1100;52.014;8.540;2023-06-04T13:44:26;2.13;;;0.70;;
2187;SDS011;1100;52.014;8.540;2023-06-04T13:46:53;2.13;;;0.70;;
2187;SDS011;1100;52.014;8.540;2023-06-04T13:49:18;1.93;;;0.60;;
2187;SDS011;1100;52.014;8.540;2023-06-04T13:51:44;1.73;;;0.50;;
2187;SDS011;1100;52.014;8.540;2023-06-04T13:54:09;2.10;;;0.63;;
2187;SDS011;1100;52.014;8.540;2023-06-04T13:56:34;2.20;;;0.80;;
2187;SDS011;1100;52.014;8.540;2023-06-04T13:59:00;1.60;;;0.50;;
2187;SDS011;1100;52.014;8.540;2023-06-04T14:01:25;2.13;;;0.60;;
2187;SDS011;1100;52.014;8.540;2023-06-04T14:03:50;1.67;;;0.52;;
2187;SDS011;1100;52.014;8.540;2023-06-04T14:06:16;2.67;;;0.55;;
2187;SDS011;1100;52.014;8.540;2023-06-04T14:08:42;2.13;;;0.57;;
2187;SDS011;1100;52.014;8.540;2023-06-04T14:11:07;1.90;;;0.50;;
2187;SDS011;1100;52.014;8.540;2023-06-04T14:13:32;2.20;;;0.80;;
2187;SDS011;1100;52.014;8.540;2023-06-04T14:15:58;2.23;;;0.80;;
2187;SDS011;1100;52.014;8.540;2023-06-04T14:18:23;2.07;;;0.70;;
2187;SDS011;1100;52.014;8.540;2023-06-04T14:20:49;2.00;;;0.80;;
2187;SDS011;1100;52.014;8.540;2023-06-04T14:23:15;2.50;;;0.80;;
2187;SDS011;1100;52.014;8.540;2023-06-04T14:25:41;2.10;;;0.63;;
2187;SDS011;1100;52.014;8.540;2023-06-04T14:28:06;1.93;;;0.60;;
2187;SDS011;1100;52.014;8.540;2023-06-04T14:30:32;2.30;;;0.60;;
2187;SDS011;1100;52.014;8.540;2023-06-04T14:32:57;1.70;;;0.60;;
2187;SDS011;1100;52.014;8.540;2023-06-04T14:35:23;1.83;;;0.70;;
2187;SDS011;1100;52.014;8.540;2023-06-04T14:37:48;2.37;;;0.77;;
2187;SDS011;1100;52.014;8.540;2023-06-04T14:40:13;2.33;;;0.60;;
2187;SDS011;1100;52.014;8.540;2023-06-04T14:42:39;2.08;;;0.70;;
2187;SDS011;1100;52.014;8.540;2023-06-04T14:45:04;1.60;;;0.50;;
2187;SDS011;1100;52.014;8.540;2023-06-04T14:47:30;2.03;;;0.60;;
2187;SDS011;1100;52.014;8.540;2023-06-04T14:49:56;2.17;;;0.65;;
2187;SDS011;1100;52.014;8.540;2023-06-04T14:52:21;2.30;;;0.73;;
2187;SDS011;1100;52.014;8.540;2023-06-04T14:54:46;2.20;;;0.70;;
2187;SDS011;1100;52.014;8.540;2023-06-04T14:57:11;1.57;;;0.50;;
2187;SDS011;1100;52.014;8.540;2023-06-04T14:59:38;3.97;;;0.80;;
2187;SDS011;1100;52.014;8.540;2023-06-04T15:02:04;2.45;;;0.90;;
2187;SDS011;1100;52.014;8.540;2023-06-04T15:04:30;2.10;;;0.60;;
2187;SDS011;1100;52.014;8.540;2023-06-04T15:06:55;2.20;;;0.60;;
2187;SDS011;1100;52.014;8.540;2023-06-04T15:09:21;2.40;;;0.97;;
2187;SDS011;1100;52.014;8.540;2023-06-04T15:11:46;2.10;;;0.70;;
2187;SDS011;1100;52.014;8.540;2023-06-04T15:14:11;1.90;;;0.83;;
2187;SDS011;1100;52.014;8.540;2023-06-04T15:16:37;2.30;;;0.73;;
2187;SDS011;1100;52.014;8.540;2023-06-04T15:19:02;2.33;;;0.70;;
2187;SDS011;1100;52.014;8.540;2023-06-04T15:21:27;2.37;;;0.60;;
2187;SDS011;1100;52.014;8.540;2023-06-04T15:23:53;2.15;;;0.63;;